sensor_id;sensor_type;location;lat;lon;timestamp;noise_LAeq;noise_LA_min;noise_LA_max;noise_LA01;noise_LA95
48148;Laerm;29352;48.708;9.290;2023-02-20T00:00:30;51.57;48.67;53.39;;
48148;Laerm;29352;48.708;9.290;2023-02-20T00:02:57;51.65;47.52;54.87;;
48148;Laerm;29352;48.708;9.290;2023-02-20T00:05:23;52.27;49.58;55.45;;
48148;Laerm;29352;48.708;9.290;2023-02-20T00:07:49;52.38;49.21;57.67;;
48148;Laerm;29352;48.708;9.290;2023-02-20T00:10:15;51.78;48.52;59.84;;
48148;Laerm;29352;48.708;9.290;2023-02-20T00:12:41;51.71;48.95;59.40;;
48148;Laerm;29352;48.708;9.290;2023-02-20T00:15:08;51.97;49.21;58.70;;
48148;Laerm;29352;48.708;9.290;2023-02-20T00:17:33;52.63;46.20;56.55;;
48148;Laerm;29352;48.708;9.290;2023-02-20T00:20:00;52.80;47.12;57.74;;
48148;Laerm;29352;48.708;9.290;2023-02-20T00:22:26;52.82;44.31;54.27;;
48148;Laerm;29352;48.708;9.290;2023-02-20T00:24:53;53.05;50.03;54.23;;
48148;Laerm;29352;48.708;9.290;2023-02-20T00:27:19;53.31;51.30;59.72;;
48148;Laerm;29352;48.708;9.290;2023-02-20T00:29:45;53.07;51.06;54.43;;
48148;Laerm;29352;48.708;9.290;2023-02-20T00:32:12;53.02;50.03;56.05;;
48148;Laerm;29352;48.708;9.290;2023-02-20T00:34:38;53.09;51.14;54.62;;
48148;Laerm;29352;48.708;9.290;2023-02-20T00:37:04;53.28;50.53;54.35;;
48148;Laerm;29352;48.708;9.290;2023-02-20T00:39:31;52.91;48.95;54.90;;
48148;Laerm;29352;48.708;9.290;2023-02-20T00:41:56;52.25;46.91;54.27;;
48148;Laerm;29352;48.708;9.290;2023-02-20T00:44:23;51.70;45.66;57.38;;
48148;Laerm;29352;48.708;9.290;2023-02-20T00:46:49;52.98;50.53;55.91;;
48148;Laerm;29352;48.708;9.290;2023-02-20T00:49:20;53.39;51.22;54.65;;
48148;Laerm;29352;48.708;9.290;2023-02-20T00:51:45;53.20;50.33;55.63;;
48148;Laerm;29352;48.708;9.290;2023-02-20T00:54:11;53.27;49.58;58.52;;
48148;Laerm;29352;48.708;9.290;2023-02-20T00:56:37;53.36;50.43;57.14;;
48148;Laerm;29352;48.708;9.290;2023-02-20T00:59:02;52.59;47.12;57.81;;
48148;Laerm;29352;48.708;9.290;2023-02-20T01:01:28;52.76;48.52;59.34;;
48148;Laerm;29352;48.708;9.290;2023-02-20T01:03:54;53.20;49.92;56.73;;
48148;Laerm;29352;48.708;9.290;2023-02-20T01:06:19;52.18;48.81;61.09;;
48148;Laerm;29352;48.708;9.290;2023-02-20T01:08:45;53.42;51.30;55.83;;
48148;Laerm;29352;48.708;9.290;2023-02-20T01:11:10;53.44;50.71;54.58;;
48148;Laerm;29352;48.708;9.290;2023-02-20T01:13:36;53.29;48.95;56.35;;
48148;Laerm;29352;48.708;9.290;2023-02-20T01:16:01;52.72;50.33;57.30;;
48148;Laerm;29352;48.708;9.290;2023-02-20T01:18:27;51.92;48.95;54.31;;
48148;Laerm;29352;48.708;9.290;2023-02-20T01:20:52;52.45;49.70;57.98;;
48148;Laerm;29352;48.708;9.290;2023-02-20T01:23:18;51.85;46.20;57.22;;
48148;Laerm;29352;48.708;9.290;2023-02-20T01:25:43;52.15;47.32;58.25;;
48148;Laerm;29352;48.708;9.290;2023-02-20T01:28:09;52.90;50.43;55.57;;
48148;Laerm;29352;48.708;9.290;2023-02-20T01:30:35;52.75;49.70;56.05;;
48148;Laerm;29352;48.708;9.290;2023-02-20T01:33:00;52.70;50.43;58.18;;
48148;Laerm;29352;48.708;9.290;2023-02-20T01:35:27;52.30;46.91;57.96;;
48148;Laerm;29352;48.708;9.290;2023-02-20T01:37:58;52.00;49.70;57.63;;
48148;Laerm;29352;48.708;9.290;2023-02-20T01:40:26;52.02;49.92;55.77;;
48148;Laerm;29352;48.708;9.290;2023-02-20T01:42:53;52.11;48.81;54.73;;
48148;Laerm;29352;48.708;9.290;2023-02-20T01:45:32;52.24;50.23;54.69;;
48148;Laerm;29352;48.708;9.290;2023-02-20T01:47:58;52.25;49.92;56.45;;
48148;Laerm;29352;48.708;9.290;2023-02-20T01:50:41;52.39;50.13;54.51;;
48148;Laerm;29352;48.708;9.290;2023-02-20T01:53:15;52.31;49.92;56.91;;
48148;Laerm;29352;48.708;9.290;2023-02-20T01:55:50;53.24;46.91;54.58;;
48148;Laerm;29352;48.708;9.290;2023-02-20T01:58:23;53.40;50.62;56.78;;
48148;Laerm;29352;48.708;9.290;2023-02-20T02:00:50;53.47;51.53;55.91;;
48148;Laerm;29352;48.708;9.290;2023-02-20T02:03:23;53.01;49.92;56.69;;
48148;Laerm;29352;48.708;9.290;2023-02-20T02:05:57;52.82;48.21;59.14;;
48148;Laerm;29352;48.708;9.290;2023-02-20T02:08:28;52.87;49.46;56.59;;
48148;Laerm;29352;48.708;9.290;2023-02-20T02:11:02;53.14;51.30;55.66;;
48148;Laerm;29352;48.708;9.290;2023-02-20T02:13:34;52.24;48.37;55.11;;
48148;Laerm;29352;48.708;9.290;2023-02-20T02:18:40;52.92;47.12;54.35;;
48148;Laerm;29352;48.708;9.290;2023-02-20T02:33:46;51.49;44.31;54.39;;
48148;Laerm;29352;48.708;9.290;2023-02-20T02:39:47;51.61;48.05;55.63;;
48148;Laerm;29352;48.708;9.290;2023-02-20T02:42:20;50.16;45.36;57.22;;
48148;Laerm;29352;48.708;9.290;2023-02-20T02:44:56;50.71;46.34;54.97;;
48148;Laerm;29352;48.708;9.290;2023-02-20T02:47:52;52.92;46.98;57.48;;
48148;Laerm;29352;48.708;9.290;2023-02-20T02:50:33;52.40;48.02;54.90;;
48148;Laerm;29352;48.708;9.290;2023-02-20T02:53:03;52.51;46.69;54.73;;
48148;Laerm;29352;48.708;9.290;2023-02-20T02:55:31;52.30;47.12;58.12;;
48148;Laerm;29352;48.708;9.290;2023-02-20T02:57:59;51.51;48.67;54.23;;
48148;Laerm;29352;48.708;9.290;2023-02-20T03:00:50;51.48;48.37;54.23;;
48148;Laerm;29352;48.708;9.290;2023-02-20T03:03:27;51.31;47.32;59.39;;
48148;Laerm;29352;48.708;9.290;2023-02-20T03:06:17;51.53;47.32;55.07;;
48148;Laerm;29352;48.708;9.290;2023-02-20T03:08:59;52.39;49.21;59.93;;
48148;Laerm;29352;48.708;9.290;2023-02-20T03:11:29;52.25;48.05;56.13;;
48148;Laerm;29352;48.708;9.290;2023-02-20T03:14:06;52.55;50.62;61.99;;
48148;Laerm;29352;48.708;9.290;2023-02-20T03:19:47;52.12;47.70;57.98;;
48148;Laerm;29352;48.708;9.290;2023-02-20T03:22:24;52.51;47.88;56.73;;
48148;Laerm;29352;48.708;9.290;2023-02-20T03:25:01;52.82;47.70;54.90;;
48148;Laerm;29352;48.708;9.290;2023-02-20T03:27:53;52.72;50.03;62.19;;
48148;Laerm;29352;48.708;9.290;2023-02-20T03:33:14;52.83;48.95;54.54;;
48148;Laerm;29352;48.708;9.290;2023-02-20T03:36:07;52.23;48.21;58.26;;
48148;Laerm;29352;48.708;9.290;2023-02-20T03:39:05;51.53;47.12;57.79;;
48148;Laerm;29352;48.708;9.290;2023-02-20T03:41:55;51.76;48.67;55.69;;
48148;Laerm;29352;48.708;9.290;2023-02-20T03:44:42;52.05;49.08;53.94;;
48148;Laerm;29352;48.708;9.290;2023-02-20T03:47:14;52.17;47.70;55.69;;
48148;Laerm;29352;48.708;9.290;2023-02-20T03:49:48;52.23;48.21;54.39;;
48148;Laerm;29352;48.708;9.290;2023-02-20T03:52:16;51.94;47.32;55.45;;
48148;Laerm;29352;48.708;9.290;2023-02-20T03:54:43;51.87;49.21;53.99;;
48148;Laerm;29352;48.708;9.290;2023-02-20T03:57:15;51.78;46.69;53.94;;
48148;Laerm;29352;48.708;9.290;2023-02-20T03:59:52;52.14;47.70;56.18;;
48148;Laerm;29352;48.708;9.290;2023-02-20T04:02:30;51.26;44.69;56.78;;
48148;Laerm;29352;48.708;9.290;2023-02-20T04:05:04;50.31;43.44;54.35;;
48148;Laerm;29352;48.708;9.290;2023-02-20T04:07:53;50.80;45.66;54.83;;
48148;Laerm;29352;48.708;9.290;2023-02-20T04:10:28;51.37;44.31;54.23;;
48148;Laerm;29352;48.708;9.290;2023-02-20T04:12:56;49.93;42.35;53.81;;
48148;Laerm;29352;48.708;9.290;2023-02-20T04:15:24;52.55;48.52;57.82;;
48148;Laerm;29352;48.708;9.290;2023-02-20T04:17:58;52.75;50.13;55.77;;
48148;Laerm;29352;48.708;9.290;2023-02-20T04:20:25;52.84;48.21;55.42;;
48148;Laerm;29352;48.708;9.290;2023-02-20T04:23:01;52.62;43.44;54.03;;
48148;Laerm;29352;48.708;9.290;2023-02-20T04:28:15;52.44;49.81;58.26;;
48148;Laerm;29352;48.708;9.290;2023-02-20T04:30:41;52.23;49.58;59.16;;
48148;Laerm;29352;48.708;9.290;2023-02-20T04:33:11;52.19;49.70;56.93;;
48148;Laerm;29352;48.708;9.290;2023-02-20T04:35:38;52.18;50.27;55.80;;
48148;Laerm;29352;48.708;9.290;2023-02-20T04:38:04;52.31;50.43;55.80;;
48148;Laerm;29352;48.708;9.290;2023-02-20T04:40:30;51.98;49.57;54.97;;
48148;Laerm;29352;48.708;9.290;2023-02-20T04:42:56;51.65;47.52;55.51;;
48148;Laerm;29352;48.708;9.290;2023-02-20T04:45:21;51.43;49.21;58.58;;
48148;Laerm;29352;48.708;9.290;2023-02-20T04:47:47;50.80;47.70;54.80;;
48148;Laerm;29352;48.708;9.290;2023-02-20T04:50:24;51.07;47.52;53.94;;
48148;Laerm;29352;48.708;9.290;2023-02-20T04:52:50;51.36;48.21;54.54;;
48148;Laerm;29352;48.708;9.290;2023-02-20T04:55:16;51.52;45.94;54.62;;
48148;Laerm;29352;48.708;9.290;2023-02-20T04:57:42;50.70;45.94;53.63;;
48148;Laerm;29352;48.708;9.290;2023-02-20T05:00:09;50.83;46.45;53.86;;
48148;Laerm;29352;48.708;9.290;2023-02-20T05:02:37;49.96;46.91;54.23;;
48148;Laerm;29352;48.708;9.290;2023-02-20T05:05:05;49.85;46.45;52.35;;
48148;Laerm;29352;48.708;9.290;2023-02-20T05:07:32;49.98;46.69;52.82;;
48148;Laerm;29352;48.708;9.290;2023-02-20T05:09:57;50.02;45.94;53.58;;
48148;Laerm;29352;48.708;9.290;2023-02-20T05:12:23;50.15;47.32;53.24;;
48148;Laerm;29352;48.708;9.290;2023-02-20T05:14:48;50.03;45.94;52.82;;
48148;Laerm;29352;48.708;9.290;2023-02-20T05:17:13;49.64;44.69;53.19;;
48148;Laerm;29352;48.708;9.290;2023-02-20T05:19:39;50.11;45.66;55.80;;
48148;Laerm;29352;48.708;9.290;2023-02-20T05:22:10;50.49;46.69;55.99;;
48148;Laerm;29352;48.708;9.290;2023-02-20T05:24:47;51.11;48.21;55.20;;
48148;Laerm;29352;48.708;9.290;2023-02-20T05:27:16;51.07;45.66;54.54;;
48148;Laerm;29352;48.708;9.290;2023-02-20T05:29:45;50.42;47.32;54.03;;
48148;Laerm;29352;48.708;9.290;2023-02-20T05:32:10;50.05;45.66;53.58;;
48148;Laerm;29352;48.708;9.290;2023-02-20T05:34:36;50.25;46.69;53.94;;
48148;Laerm;29352;48.708;9.290;2023-02-20T05:37:01;49.88;46.45;58.45;;
48148;Laerm;29352;48.708;9.290;2023-02-20T05:39:26;49.34;45.04;58.76;;
48148;Laerm;29352;48.708;9.290;2023-02-20T05:41:52;49.61;46.20;53.39;;
48148;Laerm;29352;48.708;9.290;2023-02-20T05:44:17;49.05;42.93;52.35;;
48148;Laerm;29352;48.708;9.290;2023-02-20T05:46:43;49.04;45.04;53.58;;
48148;Laerm;29352;48.708;9.290;2023-02-20T05:49:11;49.61;44.69;56.59;;
48148;Laerm;29352;48.708;9.290;2023-02-20T05:51:38;50.05;45.04;59.19;;
48148;Laerm;29352;48.708;9.290;2023-02-20T05:54:04;49.94;43.44;54.97;;
48148;Laerm;29352;48.708;9.290;2023-02-20T05:56:30;50.20;46.20;54.62;;
48148;Laerm;29352;48.708;9.290;2023-02-20T05:58:57;50.02;45.94;54.80;;
48148;Laerm;29352;48.708;9.290;2023-02-20T06:01:28;49.94;45.94;53.77;;
48148;Laerm;29352;48.708;9.290;2023-02-20T06:03:54;49.81;45.66;53.94;;
48148;Laerm;29352;48.708;9.290;2023-02-20T06:06:20;49.84;46.20;53.29;;
48148;Laerm;29352;48.708;9.290;2023-02-20T06:08:47;50.07;46.91;53.19;;
48148;Laerm;29352;48.708;9.290;2023-02-20T06:11:14;50.18;47.52;55.94;;
48148;Laerm;29352;48.708;9.290;2023-02-20T06:13:42;49.95;47.32;53.72;;
48148;Laerm;29352;48.708;9.290;2023-02-20T06:16:08;49.99;46.77;53.49;;
48148;Laerm;29352;48.708;9.290;2023-02-20T06:18:39;50.04;46.91;54.19;;
48148;Laerm;29352;48.708;9.290;2023-02-20T06:21:10;49.51;43.97;53.58;;
48148;Laerm;29352;48.708;9.290;2023-02-20T06:23:37;50.39;46.91;57.93;;
48148;Laerm;29352;48.708;9.290;2023-02-20T06:26:07;50.38;46.69;59.60;;
48148;Laerm;29352;48.708;9.290;2023-02-20T06:28:33;50.80;47.70;58.58;;
48148;Laerm;29352;48.708;9.290;2023-02-20T06:30:59;50.52;46.69;56.43;;
48148;Laerm;29352;48.708;9.290;2023-02-20T06:33:24;50.48;46.91;55.51;;
48148;Laerm;29352;48.708;9.290;2023-02-20T06:35:50;50.00;46.45;55.57;;
48148;Laerm;29352;48.708;9.290;2023-02-20T06:38:15;50.30;47.52;53.72;;
48148;Laerm;29352;48.708;9.290;2023-02-20T06:40:41;50.40;47.35;54.03;;
48148;Laerm;29352;48.708;9.290;2023-02-20T06:43:06;50.00;46.20;53.24;;
48148;Laerm;29352;48.708;9.290;2023-02-20T06:45:32;50.10;46.69;52.93;;
48148;Laerm;29352;48.708;9.290;2023-02-20T06:47:57;51.05;36.91;54.47;;
48148;Laerm;29352;48.708;9.290;2023-02-20T06:50:23;51.42;49.21;54.76;;
48148;Laerm;29352;48.708;9.290;2023-02-20T06:52:48;51.71;48.52;54.62;;
48148;Laerm;29352;48.708;9.290;2023-02-20T06:55:14;50.02;45.66;53.09;;
48148;Laerm;29352;48.708;9.290;2023-02-20T06:57:39;48.24;38.67;52.82;;
48148;Laerm;29352;48.708;9.290;2023-02-20T07:00:05;49.65;44.31;52.35;;
48148;Laerm;29352;48.708;9.290;2023-02-20T07:02:31;49.28;42.93;51.96;;
48148;Laerm;29352;48.708;9.290;2023-02-20T07:04:56;48.74;33.90;52.09;;
48148;Laerm;29352;48.708;9.290;2023-02-20T07:07:22;48.79;15.00;51.75;;
48148;Laerm;29352;48.708;9.290;2023-02-20T07:09:47;47.76;36.91;50.71;;
48148;Laerm;29352;48.708;9.290;2023-02-20T07:12:13;46.42;15.00;53.86;;
48148;Laerm;29352;48.708;9.290;2023-02-20T07:14:38;47.61;15.00;54.65;;
48148;Laerm;29352;48.708;9.290;2023-02-20T07:17:04;47.38;15.00;51.53;;
48148;Laerm;29352;48.708;9.290;2023-02-20T07:19:29;48.44;15.00;69.45;;
48148;Laerm;29352;48.708;9.290;2023-02-20T07:21:55;44.72;15.00;50.89;;
48148;Laerm;29352;48.708;9.290;2023-02-20T07:24:20;43.39;15.00;49.81;;
48148;Laerm;29352;48.708;9.290;2023-02-20T07:26:46;46.28;15.00;78.93;;
48148;Laerm;29352;48.708;9.290;2023-02-20T07:29:13;49.45;15.00;84.17;;
48148;Laerm;29352;48.708;9.290;2023-02-20T07:31:39;44.78;15.00;51.06;;
48148;Laerm;29352;48.708;9.290;2023-02-20T07:34:04;47.07;15.00;51.06;;
48148;Laerm;29352;48.708;9.290;2023-02-20T07:36:29;46.32;15.00;53.81;;
48148;Laerm;29352;48.708;9.290;2023-02-20T07:39:00;45.47;15.00;51.46;;
48148;Laerm;29352;48.708;9.290;2023-02-20T07:41:29;44.17;15.00;68.65;;
48148;Laerm;29352;48.708;9.290;2023-02-20T07:44:00;47.47;15.00;72.05;;
48148;Laerm;29352;48.708;9.290;2023-02-20T07:46:26;47.20;15.00;51.96;;
48148;Laerm;29352;48.708;9.290;2023-02-20T07:48:51;47.22;15.00;50.89;;
48148;Laerm;29352;48.708;9.290;2023-02-20T07:51:17;47.81;15.00;51.30;;
48148;Laerm;29352;48.708;9.290;2023-02-20T07:53:50;48.52;38.67;51.75;;
48148;Laerm;29352;48.708;9.290;2023-02-20T07:56:18;50.45;42.58;53.68;;
48148;Laerm;29352;48.708;9.290;2023-02-20T07:58:45;51.36;45.36;71.84;;
48148;Laerm;29352;48.708;9.290;2023-02-20T08:01:11;52.50;45.94;54.11;;
48148;Laerm;29352;48.708;9.290;2023-02-20T08:03:36;52.12;48.05;54.07;;
48148;Laerm;29352;48.708;9.290;2023-02-20T08:06:02;52.26;48.52;53.81;;
48148;Laerm;29352;48.708;9.290;2023-02-20T08:08:27;51.74;48.52;54.07;;
48148;Laerm;29352;48.708;9.290;2023-02-20T08:10:53;52.24;49.21;53.99;;
48148;Laerm;29352;48.708;9.290;2023-02-20T08:13:18;52.92;51.38;54.11;;
48148;Laerm;29352;48.708;9.290;2023-02-20T08:15:44;52.64;50.33;53.99;;
48148;Laerm;29352;48.708;9.290;2023-02-20T08:18:10;52.95;51.30;54.07;;
48148;Laerm;29352;48.708;9.290;2023-02-20T08:20:36;52.97;50.98;53.99;;
48148;Laerm;29352;48.708;9.290;2023-02-20T08:23:01;52.90;50.98;54.19;;
48148;Laerm;29352;48.708;9.290;2023-02-20T08:25:29;52.65;50.71;53.77;;
48148;Laerm;29352;48.708;9.290;2023-02-20T08:27:57;52.75;51.06;53.93;;
48148;Laerm;29352;48.708;9.290;2023-02-20T08:30:26;52.55;50.71;53.94;;
48148;Laerm;29352;48.708;9.290;2023-02-20T08:32:54;52.53;50.43;53.72;;
48148;Laerm;29352;48.708;9.290;2023-02-20T08:35:21;52.57;50.98;53.86;;
48148;Laerm;29352;48.708;9.290;2023-02-20T08:37:50;52.81;51.53;54.03;;
48148;Laerm;29352;48.708;9.290;2023-02-20T08:40:16;52.86;51.46;53.86;;
48148;Laerm;29352;48.708;9.290;2023-02-20T08:42:41;52.78;51.30;53.86;;
48148;Laerm;29352;48.708;9.290;2023-02-20T08:45:08;52.82;51.38;54.03;;
48148;Laerm;29352;48.708;9.290;2023-02-20T08:47:34;52.82;51.61;53.94;;
48148;Laerm;29352;48.708;9.290;2023-02-20T08:49:59;53.00;50.43;75.06;;
48148;Laerm;29352;48.708;9.290;2023-02-20T08:52:25;52.79;50.53;53.90;;
48148;Laerm;29352;48.708;9.290;2023-02-20T08:54:50;52.75;51.30;53.90;;
48148;Laerm;29352;48.708;9.290;2023-02-20T08:57:17;52.81;51.46;53.94;;
48148;Laerm;29352;48.708;9.290;2023-02-20T08:59:43;52.71;51.22;53.90;;
48148;Laerm;29352;48.708;9.290;2023-02-20T09:02:18;52.70;51.38;53.81;;
48148;Laerm;29352;48.708;9.290;2023-02-20T09:04:44;52.71;51.46;54.08;;
48148;Laerm;29352;48.708;9.290;2023-02-20T09:07:11;52.68;51.38;53.77;;
48148;Laerm;29352;48.708;9.290;2023-02-20T09:09:37;52.62;50.98;54.07;;
48148;Laerm;29352;48.708;9.290;2023-02-20T09:12:03;52.53;51.30;53.63;;
48148;Laerm;29352;48.708;9.290;2023-02-20T09:14:29;52.61;51.22;53.72;;
48148;Laerm;29352;48.708;9.290;2023-02-20T09:16:54;52.59;51.22;53.72;;
48148;Laerm;29352;48.708;9.290;2023-02-20T09:19:19;52.56;50.89;53.58;;
48148;Laerm;29352;48.708;9.290;2023-02-20T09:21:47;52.51;50.80;53.58;;
48148;Laerm;29352;48.708;9.290;2023-02-20T09:24:13;52.49;51.06;57.18;;
48148;Laerm;29352;48.708;9.290;2023-02-20T09:26:38;52.48;50.96;62.11;;
48148;Laerm;29352;48.708;9.290;2023-02-20T09:29:04;52.48;51.14;53.58;;
48148;Laerm;29352;48.708;9.290;2023-02-20T09:31:29;52.71;50.89;75.13;;
48148;Laerm;29352;48.708;9.290;2023-02-20T09:33:55;52.40;50.96;53.58;;
48148;Laerm;29352;48.708;9.290;2023-02-20T09:36:20;52.40;49.08;53.54;;
48148;Laerm;29352;48.708;9.290;2023-02-20T09:38:46;52.45;51.22;53.77;;
48148;Laerm;29352;48.708;9.290;2023-02-20T09:41:29;52.43;50.80;53.63;;
48148;Laerm;29352;48.708;9.290;2023-02-20T09:44:19;52.38;50.89;53.58;;
48148;Laerm;29352;48.708;9.290;2023-02-20T09:46:54;52.30;49.08;53.49;;
48148;Laerm;29352;48.708;9.290;2023-02-20T09:49:29;52.28;50.98;53.49;;
48148;Laerm;29352;48.708;9.290;2023-02-20T09:52:10;52.27;50.80;53.63;;
48148;Laerm;29352;48.708;9.290;2023-02-20T09:54:49;52.27;50.80;53.44;;
48148;Laerm;29352;48.708;9.290;2023-02-20T09:57:24;52.29;50.80;53.54;;
48148;Laerm;29352;48.708;9.290;2023-02-20T10:00:27;52.29;50.62;53.63;;
48148;Laerm;29352;48.708;9.290;2023-02-20T10:03:15;52.24;50.80;53.44;;
48148;Laerm;29352;48.708;9.290;2023-02-20T10:05:43;52.12;50.62;53.49;;
48148;Laerm;29352;48.708;9.290;2023-02-20T10:08:19;52.14;50.23;53.49;;
48148;Laerm;29352;48.708;9.290;2023-02-20T10:10:50;52.18;50.71;53.63;;
48148;Laerm;29352;48.708;9.290;2023-02-20T10:16:23;52.28;48.95;57.91;;
48148;Laerm;29352;48.708;9.290;2023-02-20T10:27:37;51.15;46.69;53.24;;
48148;Laerm;29352;48.708;9.290;2023-02-20T10:30:12;51.46;47.70;53.49;;
48148;Laerm;29352;48.708;9.290;2023-02-20T10:32:51;52.29;50.33;53.72;;
48148;Laerm;29352;48.708;9.290;2023-02-20T10:35:39;52.41;50.13;58.58;;
48148;Laerm;29352;48.708;9.290;2023-02-20T10:38:12;52.39;50.98;53.90;;
48148;Laerm;29352;48.708;9.290;2023-02-20T10:40:51;52.36;50.89;53.49;;
48148;Laerm;29352;48.708;9.290;2023-02-20T10:43:39;52.32;50.71;53.54;;
48148;Laerm;29352;48.708;9.290;2023-02-20T10:46:25;52.24;50.43;53.54;;
48148;Laerm;29352;48.708;9.290;2023-02-20T10:48:59;52.20;50.80;53.63;;
48148;Laerm;29352;48.708;9.290;2023-02-20T10:51:40;52.16;50.43;64.51;;
48148;Laerm;29352;48.708;9.290;2023-02-20T10:54:24;52.15;50.13;53.54;;
48148;Laerm;29352;48.708;9.290;2023-02-20T10:57:06;52.15;50.80;53.39;;
48148;Laerm;29352;48.708;9.290;2023-02-20T11:00:10;52.06;50.13;53.39;;
48148;Laerm;29352;48.708;9.290;2023-02-20T11:02:46;52.11;48.37;67.51;;
48148;Laerm;29352;48.708;9.290;2023-02-20T11:05:21;52.03;50.33;53.37;;
48148;Laerm;29352;48.708;9.290;2023-02-20T11:07:50;51.99;50.33;53.19;;
48148;Laerm;29352;48.708;9.290;2023-02-20T11:10:15;51.92;50.18;53.34;;
48148;Laerm;29352;48.708;9.290;2023-02-20T11:12:49;51.92;50.08;53.34;;
48148;Laerm;29352;48.708;9.290;2023-02-20T11:15:24;51.87;50.13;53.19;;
48148;Laerm;29352;48.708;9.290;2023-02-20T11:17:55;51.84;50.03;53.29;;
48148;Laerm;29352;48.708;9.290;2023-02-20T11:23:06;51.84;50.03;53.63;;
48148;Laerm;29352;48.708;9.290;2023-02-20T11:25:37;51.82;50.03;53.24;;
48148;Laerm;29352;48.708;9.290;2023-02-20T11:28:25;51.82;50.13;53.14;;
48148;Laerm;29352;48.708;9.290;2023-02-20T11:31:03;51.82;50.23;53.09;;
48148;Laerm;29352;48.708;9.290;2023-02-20T11:33:33;51.81;50.13;53.19;;
48148;Laerm;29352;48.708;9.290;2023-02-20T11:36:22;51.81;50.18;53.14;;
48148;Laerm;29352;48.708;9.290;2023-02-20T11:39:00;51.80;49.92;53.24;;
48148;Laerm;29352;48.708;9.290;2023-02-20T11:41:34;51.77;50.08;53.14;;
48148;Laerm;29352;48.708;9.290;2023-02-20T11:46:35;51.81;49.81;53.34;;
48148;Laerm;29352;48.708;9.290;2023-02-20T11:49:05;51.75;50.13;53.19;;
48148;Laerm;29352;48.708;9.290;2023-02-20T11:51:46;51.71;49.81;53.14;;
48148;Laerm;29352;48.708;9.290;2023-02-20T11:54:23;51.80;50.03;53.04;;
48148;Laerm;29352;48.708;9.290;2023-02-20T11:59:43;51.78;49.92;52.98;;
48148;Laerm;29352;48.708;9.290;2023-02-20T12:07:56;51.80;50.03;53.09;;
48148;Laerm;29352;48.708;9.290;2023-02-20T12:10:42;51.82;50.03;53.09;;
48148;Laerm;29352;48.708;9.290;2023-02-20T12:13:15;51.77;49.58;60.15;;
48148;Laerm;29352;48.708;9.290;2023-02-20T12:15:43;51.78;50.13;53.14;;
48148;Laerm;29352;48.708;9.290;2023-02-20T12:20:58;51.74;49.92;53.24;;
48148;Laerm;29352;48.708;9.290;2023-02-20T12:24:02;51.70;49.81;53.19;;
48148;Laerm;29352;48.708;9.290;2023-02-20T12:26:54;51.68;49.81;53.09;;
48148;Laerm;29352;48.708;9.290;2023-02-20T12:32:30;51.66;49.70;52.93;;
48148;Laerm;29352;48.708;9.290;2023-02-20T12:44:06;51.73;49.81;53.24;;
48148;Laerm;29352;48.708;9.290;2023-02-20T12:53:42;51.62;49.81;53.19;;
48148;Laerm;29352;48.708;9.290;2023-02-20T13:01:35;51.59;50.03;53.04;;
48148;Laerm;29352;48.708;9.290;2023-02-20T13:04:28;51.51;49.58;52.93;;
48148;Laerm;29352;48.708;9.290;2023-02-20T13:07:17;51.48;49.70;52.98;;
48148;Laerm;29352;48.708;9.290;2023-02-20T13:10:04;51.50;49.58;60.98;;
48148;Laerm;29352;48.708;9.290;2023-02-20T13:12:31;51.54;49.81;52.98;;
48148;Laerm;29352;48.708;9.290;2023-02-20T13:17:53;51.53;49.81;52.93;;
48148;Laerm;29352;48.708;9.290;2023-02-20T13:20:32;51.45;49.34;53.09;;
48148;Laerm;29352;48.708;9.290;2023-02-20T13:23:30;51.39;49.34;52.98;;
48148;Laerm;29352;48.708;9.290;2023-02-20T13:25:57;51.39;49.34;52.93;;
48148;Laerm;29352;48.708;9.290;2023-02-20T13:31:39;51.40;49.46;53.09;;
48148;Laerm;29352;48.708;9.290;2023-02-20T13:55:09;51.25;49.46;52.76;;
48148;Laerm;29352;48.708;9.290;2023-02-20T14:00:43;51.21;49.21;52.65;;
48148;Laerm;29352;48.708;9.290;2023-02-20T14:08:38;51.13;49.21;52.71;;
48148;Laerm;29352;48.708;9.290;2023-02-20T14:11:25;51.12;49.34;53.04;;
48148;Laerm;29352;48.708;9.290;2023-02-20T14:13:55;51.12;48.95;52.82;;
48148;Laerm;29352;48.708;9.290;2023-02-20T14:16:36;51.12;48.67;52.71;;
48148;Laerm;29352;48.708;9.290;2023-02-20T14:19:26;51.12;48.67;52.88;;
48148;Laerm;29352;48.708;9.290;2023-02-20T14:21:54;51.10;48.67;52.59;;
48148;Laerm;29352;48.708;9.290;2023-02-20T14:24:24;51.11;49.21;52.65;;
48148;Laerm;29352;48.708;9.290;2023-02-20T14:26:51;51.08;48.37;52.98;;
48148;Laerm;29352;48.708;9.290;2023-02-20T14:29:30;51.03;48.37;52.71;;
48148;Laerm;29352;48.708;9.290;2023-02-20T14:31:59;51.00;48.52;52.53;;
48148;Laerm;29352;48.708;9.290;2023-02-20T14:40:27;50.96;48.67;52.65;;
48148;Laerm;29352;48.708;9.290;2023-02-20T14:43:01;50.96;48.67;52.65;;
48148;Laerm;29352;48.708;9.290;2023-02-20T14:45:28;50.93;48.52;52.93;;
48148;Laerm;29352;48.708;9.290;2023-02-20T14:48:02;50.90;48.81;52.41;;
48148;Laerm;29352;48.708;9.290;2023-02-20T14:50:35;50.86;48.81;52.35;;
48148;Laerm;29352;48.708;9.290;2023-02-20T14:55:36;50.82;48.52;52.53;;
48148;Laerm;29352;48.708;9.290;2023-02-20T14:58:21;50.81;48.67;52.47;;
48148;Laerm;29352;48.708;9.290;2023-02-20T15:00:49;50.80;48.21;52.47;;
48148;Laerm;29352;48.708;9.290;2023-02-20T15:03:28;50.75;48.05;52.53;;
48148;Laerm;29352;48.708;9.290;2023-02-20T15:06:01;50.78;48.21;52.47;;
48148;Laerm;29352;48.708;9.290;2023-02-20T15:08:34;50.73;48.21;52.41;;
48148;Laerm;29352;48.708;9.290;2023-02-20T15:11:12;50.70;48.52;52.53;;
48148;Laerm;29352;48.708;9.290;2023-02-20T15:13:45;50.67;48.37;52.35;;
48148;Laerm;29352;48.708;9.290;2023-02-20T15:16:21;50.68;48.21;52.22;;
48148;Laerm;29352;48.708;9.290;2023-02-20T15:18:48;50.66;48.21;52.29;;
48148;Laerm;29352;48.708;9.290;2023-02-20T15:21:37;50.65;47.88;52.41;;
48148;Laerm;29352;48.708;9.290;2023-02-20T15:26:51;50.60;48.21;52.29;;
48148;Laerm;29352;48.708;9.290;2023-02-20T15:31:44;50.56;47.70;52.59;;
48148;Laerm;29352;48.708;9.290;2023-02-20T15:34:27;50.54;48.21;52.16;;
48148;Laerm;29352;48.708;9.290;2023-02-20T15:36:53;50.29;47.70;52.35;;
48148;Laerm;29352;48.708;9.290;2023-02-20T15:39:19;49.70;46.45;51.82;;
48148;Laerm;29352;48.708;9.290;2023-02-20T15:41:46;49.16;45.04;51.75;;
48148;Laerm;29352;48.708;9.290;2023-02-20T15:44:12;48.02;40.89;51.14;;
48148;Laerm;29352;48.708;9.290;2023-02-20T15:46:37;45.39;15.00;50.03;;
48148;Laerm;29352;48.708;9.290;2023-02-20T15:49:03;43.52;15.00;48.81;;
48148;Laerm;29352;48.708;9.290;2023-02-20T15:51:36;42.15;15.00;48.67;;
48148;Laerm;29352;48.708;9.290;2023-02-20T15:54:03;40.99;15.00;47.52;;
48148;Laerm;29352;48.708;9.290;2023-02-20T15:56:33;39.94;15.00;47.52;;
48148;Laerm;29352;48.708;9.290;2023-02-20T15:59:08;41.20;15.00;48.21;;
48148;Laerm;29352;48.708;9.290;2023-02-20T16:01:35;41.47;15.00;48.05;;
48148;Laerm;29352;48.708;9.290;2023-02-20T16:04:00;46.46;15.00;81.66;;
48148;Laerm;29352;48.708;9.290;2023-02-20T16:06:25;57.70;15.00;90.26;;
48148;Laerm;29352;48.708;9.290;2023-02-20T16:08:52;56.48;15.00;90.19;;
48148;Laerm;29352;48.708;9.290;2023-02-20T16:11:29;39.10;15.00;47.87;;
48148;Laerm;29352;48.708;9.290;2023-02-20T16:14:00;38.76;15.00;47.32;;